Grayson Valley, Alabama
Current Conditions -  °F | °C
As of 10:53 AM on Friday 28 Nov 2014 (Local Time) from KBHM Reporting Station
Clear Clear  
Wind Chill: 41°   Ceiling: Unl
Heat Index: 44°   Visibility: 10mi
Dew Point: 13°   Wind: 6mph
Humidity: 28%   Direction: NA
Pressure: 30.42"   Gusts: NA
Location:  33.6283°N, 86.6434°W
Report Text: KBHM 281653Z VRB05KT 10SM CLR 07/M11 A3042 RMK AO2 SLP305 T00671106
Loading
Personal Weather Stations






























Interactive Weather Map New forecast layout! Learn more

10-Day Weather Forecast

Advertisements
Track Severe Weather on mobile